sensor_id;sensor_type;location;lat;lon;timestamp;pressure;altitude;pressure_sealevel;temperature
66113;BMP280;52893;52.870;5.822;2023-07-20T00:02:11;101387.19;;;17.39
66113;BMP280;52893;52.870;5.822;2023-07-20T00:04:38;101393.41;;;17.36
66113;BMP280;52893;52.870;5.822;2023-07-20T00:07:07;101388.63;;;17.33
66113;BMP280;52893;52.870;5.822;2023-07-20T00:09:34;101381.78;;;17.27
66113;BMP280;52893;52.870;5.822;2023-07-20T00:12:01;101391.28;;;17.30
66113;BMP280;52893;52.870;5.822;2023-07-20T00:14:28;101388.41;;;17.23
66113;BMP280;52893;52.870;5.822;2023-07-20T00:16:56;101395.06;;;17.22
66113;BMP280;52893;52.870;5.822;2023-07-20T00:19:24;101394.19;;;17.18
66113;BMP280;52893;52.870;5.822;2023-07-20T00:21:51;101396.41;;;17.12
66113;BMP280;52893;52.870;5.822;2023-07-20T00:24:20;101388.22;;;17.00
66113;BMP280;52893;52.870;5.822;2023-07-20T00:26:47;101399.34;;;17.03
66113;BMP280;52893;52.870;5.822;2023-07-20T00:29:15;101401.22;;;16.99
66113;BMP280;52893;52.870;5.822;2023-07-20T00:31:42;101384.78;;;16.87
66113;BMP280;52893;52.870;5.822;2023-07-20T00:34:09;101401.50;;;16.94
66113;BMP280;52893;52.870;5.822;2023-07-20T00:36:37;101397.84;;;16.90
66113;BMP280;52893;52.870;5.822;2023-07-20T00:39:04;101393.03;;;16.87
66113;BMP280;52893;52.870;5.822;2023-07-20T00:41:32;101395.38;;;16.85
66113;BMP280;52893;52.870;5.822;2023-07-20T00:43:59;101399.28;;;16.84
66113;BMP280;52893;52.870;5.822;2023-07-20T00:46:27;101396.44;;;16.81
66113;BMP280;52893;52.870;5.822;2023-07-20T00:48:54;101401.13;;;16.80
66113;BMP280;52893;52.870;5.822;2023-07-20T00:51:23;101389.94;;;16.73
66113;BMP280;52893;52.870;5.822;2023-07-20T00:53:50;101405.31;;;16.74
66113;BMP280;52893;52.870;5.822;2023-07-20T00:56:17;101405.78;;;16.76
66113;BMP280;52893;52.870;5.822;2023-07-20T00:58:46;101398.66;;;16.75
66113;BMP280;52893;52.870;5.822;2023-07-20T01:01:14;101397.06;;;16.74
66113;BMP280;52893;52.870;5.822;2023-07-20T01:03:41;101394.28;;;16.74
66113;BMP280;52893;52.870;5.822;2023-07-20T01:06:15;101369.72;;;16.53
66113;BMP280;52893;52.870;5.822;2023-07-20T01:08:51;101395.00;;;16.71
66113;BMP280;52893;52.870;5.822;2023-07-20T01:11:30;101398.09;;;16.70
66113;BMP280;52893;52.870;5.822;2023-07-20T01:14:00;101400.06;;;16.69
66113;BMP280;52893;52.870;5.822;2023-07-20T01:16:27;101409.13;;;16.70
66113;BMP280;52893;52.870;5.822;2023-07-20T01:18:54;101406.72;;;16.68
66113;BMP280;52893;52.870;5.822;2023-07-20T01:21:26;101403.56;;;16.66
66113;BMP280;52893;52.870;5.822;2023-07-20T01:24:08;101404.69;;;16.65
66113;BMP280;52893;52.870;5.822;2023-07-20T01:26:58;101408.59;;;16.64
66113;BMP280;52893;52.870;5.822;2023-07-20T01:29:40;101413.69;;;16.62
66113;BMP280;52893;52.870;5.822;2023-07-20T01:32:10;101406.09;;;16.59
66113;BMP280;52893;52.870;5.822;2023-07-20T01:34:38;101408.44;;;16.57
66113;BMP280;52893;52.870;5.822;2023-07-20T01:37:06;101405.69;;;16.57
66113;BMP280;52893;52.870;5.822;2023-07-20T01:39:35;101402.81;;;16.53
66113;BMP280;52893;52.870;5.822;2023-07-20T01:42:04;101399.25;;;16.53
66113;BMP280;52893;52.870;5.822;2023-07-20T01:44:31;101405.47;;;16.50
66113;BMP280;52893;52.870;5.822;2023-07-20T01:46:58;101400.69;;;16.47
66113;BMP280;52893;52.870;5.822;2023-07-20T01:49:27;101403.00;;;16.45
66113;BMP280;52893;52.870;5.822;2023-07-20T01:51:54;101397.81;;;16.43
66113;BMP280;52893;52.870;5.822;2023-07-20T01:54:21;101399.34;;;16.41
66113;BMP280;52893;52.870;5.822;2023-07-20T01:56:48;101396.91;;;16.39
66113;BMP280;52893;52.870;5.822;2023-07-20T01:59:15;101395.69;;;16.37
66113;BMP280;52893;52.870;5.822;2023-07-20T02:01:43;101401.19;;;16.37
66113;BMP280;52893;52.870;5.822;2023-07-20T02:04:11;101342.72;;;16.00
66113;BMP280;52893;52.870;5.822;2023-07-20T02:06:40;101399.94;;;16.34
66113;BMP280;52893;52.870;5.822;2023-07-20T02:09:08;101398.34;;;16.33
66113;BMP280;52893;52.870;5.822;2023-07-20T02:11:35;101401.41;;;16.32
66113;BMP280;52893;52.870;5.822;2023-07-20T02:14:02;101404.13;;;16.28
66113;BMP280;52893;52.870;5.822;2023-07-20T02:16:30;101402.88;;;16.26
66113;BMP280;52893;52.870;5.822;2023-07-20T02:18:57;101396.88;;;16.24
66113;BMP280;52893;52.870;5.822;2023-07-20T02:21:24;101394.47;;;16.22
66113;BMP280;52893;52.870;5.822;2023-07-20T02:23:53;101401.13;;;16.21
66113;BMP280;52893;52.870;5.822;2023-07-20T02:26:20;101399.91;;;16.19
66113;BMP280;52893;52.870;5.822;2023-07-20T02:28:47;101407.38;;;16.18
66113;BMP280;52893;52.870;5.822;2023-07-20T02:31:14;101393.50;;;16.15
66113;BMP280;52893;52.870;5.822;2023-07-20T02:33:41;101400.63;;;16.16
66113;BMP280;52893;52.870;5.822;2023-07-20T02:36:08;101401.75;;;16.15
66113;BMP280;52893;52.870;5.822;2023-07-20T02:38:36;101395.78;;;16.13
66113;BMP280;52893;52.870;5.822;2023-07-20T02:41:04;101403.56;;;16.11
66113;BMP280;52893;52.870;5.822;2023-07-20T02:43:31;101408.41;;;16.14
66113;BMP280;52893;52.870;5.822;2023-07-20T02:45:58;101401.28;;;16.13
66113;BMP280;52893;52.870;5.822;2023-07-20T02:48:25;101401.28;;;16.13
66113;BMP280;52893;52.870;5.822;2023-07-20T02:50:53;101406.81;;;16.13
66113;BMP280;52893;52.870;5.822;2023-07-20T02:53:20;101403.56;;;16.11
66113;BMP280;52893;52.870;5.822;2023-07-20T02:55:47;101410.38;;;16.13
66113;BMP280;52893;52.870;5.822;2023-07-20T02:58:15;101412.31;;;16.13
66113;BMP280;52893;52.870;5.822;2023-07-20T03:00:43;101414.72;;;16.14
66113;BMP280;52893;52.870;5.822;2023-07-20T03:03:10;101421.03;;;16.15
66113;BMP280;52893;52.870;5.822;2023-07-20T03:05:40;101412.78;;;16.15
66113;BMP280;52893;52.870;5.822;2023-07-20T03:08:08;101415.06;;;16.13
66113;BMP280;52893;52.870;5.822;2023-07-20T03:10:38;101416.34;;;16.15
66113;BMP280;52893;52.870;5.822;2023-07-20T03:13:06;101421.03;;;16.15
66113;BMP280;52893;52.870;5.822;2023-07-20T03:15:35;101421.03;;;16.15
66113;BMP280;52893;52.870;5.822;2023-07-20T03:18:02;101416.34;;;16.15
66113;BMP280;52893;52.870;5.822;2023-07-20T03:20:31;101417.81;;;16.13
66113;BMP280;52893;52.870;5.822;2023-07-20T03:22:58;101421.84;;;16.15
66113;BMP280;52893;52.870;5.822;2023-07-20T03:25:26;101418.28;;;16.15
66113;BMP280;52893;52.870;5.822;2023-07-20T03:27:53;101423.81;;;16.15
66113;BMP280;52893;52.870;5.822;2023-07-20T03:30:23;101418.28;;;16.15
66113;BMP280;52893;52.870;5.822;2023-07-20T03:32:53;101422.19;;;16.14
66113;BMP280;52893;52.870;5.822;2023-07-20T03:35:20;101419.44;;;16.14
66113;BMP280;52893;52.870;5.822;2023-07-20T03:37:47;101426.91;;;16.13
66113;BMP280;52893;52.870;5.822;2023-07-20T03:40:15;101421.72;;;16.12
66113;BMP280;52893;52.870;5.822;2023-07-20T03:42:51;101428.38;;;16.11
66113;BMP280;52893;52.870;5.822;2023-07-20T03:45:18;101421.66;;;16.08
66113;BMP280;52893;52.870;5.822;2023-07-20T03:47:46;101422.44;;;16.09
66113;BMP280;52893;52.870;5.822;2023-07-20T03:50:15;101423.59;;;16.08
66113;BMP280;52893;52.870;5.822;2023-07-20T03:52:43;101421.34;;;15.97
66113;BMP280;52893;52.870;5.822;2023-07-20T03:55:10;101427.69;;;15.74
66113;BMP280;52893;52.870;5.822;2023-07-20T03:57:38;101434.06;;;15.50
66113;BMP280;52893;52.870;5.822;2023-07-20T04:00:06;101431.66;;;15.24
66113;BMP280;52893;52.870;5.822;2023-07-20T04:02:38;101425.44;;;15.03
66113;BMP280;52893;52.870;5.822;2023-07-20T04:05:06;101430.13;;;14.90
66113;BMP280;52893;52.870;5.822;2023-07-20T04:07:35;101427.34;;;14.78
66113;BMP280;52893;52.870;5.822;2023-07-20T04:10:02;101432.16;;;14.69
66113;BMP280;52893;52.870;5.822;2023-07-20T04:12:29;101434.16;;;14.60
66113;BMP280;52893;52.870;5.822;2023-07-20T04:14:56;101425.19;;;14.51
66113;BMP280;52893;52.870;5.822;2023-07-20T04:17:24;101436.66;;;14.41
66113;BMP280;52893;52.870;5.822;2023-07-20T04:19:51;101430.38;;;14.32
66113;BMP280;52893;52.870;5.822;2023-07-20T04:22:18;101432.66;;;14.18
66113;BMP280;52893;52.870;5.822;2023-07-20T04:24:47;101438.06;;;14.06
66113;BMP280;52893;52.870;5.822;2023-07-20T04:27:15;101453.13;;;13.99
66113;BMP280;52893;52.870;5.822;2023-07-20T04:29:43;101439.16;;;13.92
66113;BMP280;52893;52.870;5.822;2023-07-20T04:32:10;101439.19;;;13.84
66113;BMP280;52893;52.870;5.822;2023-07-20T04:34:37;101439.06;;;13.80
66113;BMP280;52893;52.870;5.822;2023-07-20T04:37:05;101432.81;;;13.71
66113;BMP280;52893;52.870;5.822;2023-07-20T04:39:32;101449.53;;;13.78
66113;BMP280;52893;52.870;5.822;2023-07-20T04:42:07;101441.97;;;13.75
66113;BMP280;52893;52.870;5.822;2023-07-20T04:44:34;101448.56;;;13.83
66113;BMP280;52893;52.870;5.822;2023-07-20T04:47:02;101419.75;;;13.68
66113;BMP280;52893;52.870;5.822;2023-07-20T04:49:33;101459.28;;;13.96
66113;BMP280;52893;52.870;5.822;2023-07-20T04:52:01;101456.34;;;14.01
66113;BMP280;52893;52.870;5.822;2023-07-20T04:54:30;101460.47;;;14.08
66113;BMP280;52893;52.870;5.822;2023-07-20T04:56:57;101460.66;;;14.11
66113;BMP280;52893;52.870;5.822;2023-07-20T04:59:26;101457.69;;;14.16
66113;BMP280;52893;52.870;5.822;2023-07-20T05:01:53;101462.63;;;14.23
66113;BMP280;52893;52.870;5.822;2023-07-20T05:04:21;101469.53;;;14.29
66113;BMP280;52893;52.870;5.822;2023-07-20T05:06:49;101465.44;;;14.35
66113;BMP280;52893;52.870;5.822;2023-07-20T05:09:17;101465.91;;;14.37
66113;BMP280;52893;52.870;5.822;2023-07-20T05:11:44;101464.34;;;14.48
66113;BMP280;52893;52.870;5.822;2023-07-20T05:14:13;101468.31;;;14.59
66113;BMP280;52893;52.870;5.822;2023-07-20T05:16:42;101466.72;;;14.70
66113;BMP280;52893;52.870;5.822;2023-07-20T05:19:09;101457.59;;;14.78
66113;BMP280;52893;52.870;5.822;2023-07-20T05:21:36;101459.19;;;14.79
66113;BMP280;52893;52.870;5.822;2023-07-20T05:24:05;101459.22;;;14.91
66113;BMP280;52893;52.870;5.822;2023-07-20T05:26:32;101463.81;;;14.99
66113;BMP280;52893;52.870;5.822;2023-07-20T05:29:00;101462.47;;;15.06
66113;BMP280;52893;52.870;5.822;2023-07-20T05:31:27;101468.66;;;15.15
66113;BMP280;52893;52.870;5.822;2023-07-20T05:33:57;101461.59;;;15.26
66113;BMP280;52893;52.870;5.822;2023-07-20T05:36:24;101465.47;;;15.37
66113;BMP280;52893;52.870;5.822;2023-07-20T05:38:52;101472.59;;;15.50
66113;BMP280;52893;52.870;5.822;2023-07-20T05:41:19;101468.41;;;15.68
66113;BMP280;52893;52.870;5.822;2023-07-20T05:43:46;101463.56;;;15.89
66113;BMP280;52893;52.870;5.822;2023-07-20T05:46:14;101453.78;;;16.04
66113;BMP280;52893;52.870;5.822;2023-07-20T05:48:41;101461.59;;;16.30
66113;BMP280;52893;52.870;5.822;2023-07-20T05:51:09;101461.34;;;16.47
66113;BMP280;52893;52.870;5.822;2023-07-20T05:53:37;101461.78;;;16.65
66113;BMP280;52893;52.870;5.822;2023-07-20T05:56:04;101470.16;;;16.84
66113;BMP280;52893;52.870;5.822;2023-07-20T05:58:32;101455.94;;;16.97
66113;BMP280;52893;52.870;5.822;2023-07-20T06:00:59;101457.38;;;17.23
66113;BMP280;52893;52.870;5.822;2023-07-20T06:03:26;101465.72;;;17.42
66113;BMP280;52893;52.870;5.822;2023-07-20T06:05:58;101464.59;;;17.62
66113;BMP280;52893;52.870;5.822;2023-07-20T06:08:27;101466.22;;;17.82
66113;BMP280;52893;52.870;5.822;2023-07-20T06:10:54;101458.72;;;18.02
66113;BMP280;52893;52.870;5.822;2023-07-20T06:13:21;101426.38;;;18.02
66113;BMP280;52893;52.870;5.822;2023-07-20T06:15:48;101463.66;;;18.50
66113;BMP280;52893;52.870;5.822;2023-07-20T06:18:16;101465.88;;;18.64
66113;BMP280;52893;52.870;5.822;2023-07-20T06:20:48;101471.56;;;18.71
66113;BMP280;52893;52.870;5.822;2023-07-20T06:23:15;101475.72;;;18.84
66113;BMP280;52893;52.870;5.822;2023-07-20T06:25:44;101473.06;;;18.91
66113;BMP280;52893;52.870;5.822;2023-07-20T06:28:12;101477.13;;;18.97
66113;BMP280;52893;52.870;5.822;2023-07-20T06:30:39;101469.16;;;18.92
66113;BMP280;52893;52.870;5.822;2023-07-20T06:33:06;101487.19;;;18.86
66113;BMP280;52893;52.870;5.822;2023-07-20T06:35:34;101485.47;;;18.78
66113;BMP280;52893;52.870;5.822;2023-07-20T06:38:01;101478.31;;;18.74
66113;BMP280;52893;52.870;5.822;2023-07-20T06:40:30;101480.63;;;18.72
66113;BMP280;52893;52.870;5.822;2023-07-20T06:42:58;101485.03;;;18.76
66113;BMP280;52893;52.870;5.822;2023-07-20T06:45:26;101485.13;;;18.80
66113;BMP280;52893;52.870;5.822;2023-07-20T06:47:53;101488.31;;;18.82
66113;BMP280;52893;52.870;5.822;2023-07-20T06:50:20;101490.41;;;18.88
66113;BMP280;52893;52.870;5.822;2023-07-20T06:52:47;101491.56;;;18.87
66113;BMP280;52893;52.870;5.822;2023-07-20T06:55:14;101497.47;;;18.86
66113;BMP280;52893;52.870;5.822;2023-07-20T06:57:42;101492.19;;;18.77
66113;BMP280;52893;52.870;5.822;2023-07-20T07:00:12;101501.28;;;18.78
66113;BMP280;52893;52.870;5.822;2023-07-20T07:02:39;101506.75;;;18.74
66113;BMP280;52893;52.870;5.822;2023-07-20T07:05:07;101494.84;;;18.70
66113;BMP280;52893;52.870;5.822;2023-07-20T07:07:34;101497.97;;;18.68
66113;BMP280;52893;52.870;5.822;2023-07-20T07:10:02;101498.75;;;18.69
66113;BMP280;52893;52.870;5.822;2023-07-20T07:12:31;101509.09;;;18.72
66113;BMP280;52893;52.870;5.822;2023-07-20T07:14:58;101510.69;;;18.73
66113;BMP280;52893;52.870;5.822;2023-07-20T07:17:27;101508.78;;;18.77
66113;BMP280;52893;52.870;5.822;2023-07-20T07:19:54;101506.56;;;18.86
66113;BMP280;52893;52.870;5.822;2023-07-20T07:22:22;101509.72;;;19.07
66113;BMP280;52893;52.870;5.822;2023-07-20T07:24:49;101457.13;;;19.07
66113;BMP280;52893;52.870;5.822;2023-07-20T07:27:16;101504.81;;;19.76
66113;BMP280;52893;52.870;5.822;2023-07-20T07:29:43;101515.31;;;20.23
66113;BMP280;52893;52.870;5.822;2023-07-20T07:32:11;101482.09;;;20.30
66113;BMP280;52893;52.870;5.822;2023-07-20T07:34:39;101516.66;;;20.76
66113;BMP280;52893;52.870;5.822;2023-07-20T07:37:06;101505.66;;;20.87
66113;BMP280;52893;52.870;5.822;2023-07-20T07:39:33;101521.47;;;20.83
66113;BMP280;52893;52.870;5.822;2023-07-20T07:42:01;101510.63;;;20.67
66113;BMP280;52893;52.870;5.822;2023-07-20T07:44:28;101514.06;;;20.54
66113;BMP280;52893;52.870;5.822;2023-07-20T07:46:56;101502.00;;;20.39
66113;BMP280;52893;52.870;5.822;2023-07-20T07:49:23;101520.06;;;20.59
66113;BMP280;52893;52.870;5.822;2023-07-20T07:51:52;101518.03;;;20.56
66113;BMP280;52893;52.870;5.822;2023-07-20T07:54:19;101519.97;;;20.49
66113;BMP280;52893;52.870;5.822;2023-07-20T07:56:46;101517.84;;;20.39
66113;BMP280;52893;52.870;5.822;2023-07-20T07:59:13;101517.13;;;20.45
66113;BMP280;52893;52.870;5.822;2023-07-20T08:01:40;101510.97;;;20.62
66113;BMP280;52893;52.870;5.822;2023-07-20T08:04:07;101513.06;;;20.76
66113;BMP280;52893;52.870;5.822;2023-07-20T08:06:35;101517.59;;;20.91
66113;BMP280;52893;52.870;5.822;2023-07-20T08:09:03;101516.38;;;20.92
66113;BMP280;52893;52.870;5.822;2023-07-20T08:11:30;101524.34;;;20.93
66113;BMP280;52893;52.870;5.822;2023-07-20T08:13:59;101520.00;;;20.96
66113;BMP280;52893;52.870;5.822;2023-07-20T08:16:27;101520.16;;;21.14
66113;BMP280;52893;52.870;5.822;2023-07-20T08:18:54;101522.69;;;21.36
66113;BMP280;52893;52.870;5.822;2023-07-20T08:21:21;101526.31;;;21.44
66113;BMP280;52893;52.870;5.822;2023-07-20T08:23:48;101521.91;;;21.39
66113;BMP280;52893;52.870;5.822;2023-07-20T08:26:17;101525.06;;;21.38
66113;BMP280;52893;52.870;5.822;2023-07-20T08:28:44;101514.69;;;21.28
66113;BMP280;52893;52.870;5.822;2023-07-20T08:31:14;101515.41;;;21.14
66113;BMP280;52893;52.870;5.822;2023-07-20T08:33:41;101511.34;;;21.05
66113;BMP280;52893;52.870;5.822;2023-07-20T08:36:08;101527.19;;;21.04
66113;BMP280;52893;52.870;5.822;2023-07-20T08:38:35;101518.50;;;21.09
66113;BMP280;52893;52.870;5.822;2023-07-20T08:41:02;101530.03;;;21.08
66113;BMP280;52893;52.870;5.822;2023-07-20T08:43:33;101528.00;;;21.05
66113;BMP280;52893;52.870;5.822;2023-07-20T08:46:00;101526.91;;;21.16
66113;BMP280;52893;52.870;5.822;2023-07-20T08:48:30;101501.94;;;21.20
66113;BMP280;52893;52.870;5.822;2023-07-20T08:50:58;101524.38;;;21.52
66113;BMP280;52893;52.870;5.822;2023-07-20T08:53:27;101524.41;;;21.59
66113;BMP280;52893;52.870;5.822;2023-07-20T08:55:54;101528.38;;;21.61
66113;BMP280;52893;52.870;5.822;2023-07-20T08:58:23;101524.09;;;21.78
66113;BMP280;52893;52.870;5.822;2023-07-20T09:00:54;101525.00;;;22.03
66113;BMP280;52893;52.870;5.822;2023-07-20T09:03:21;101531.00;;;22.23
66113;BMP280;52893;52.870;5.822;2023-07-20T09:05:48;101525.09;;;22.28
66113;BMP280;52893;52.870;5.822;2023-07-20T09:08:16;101531.09;;;22.47
66113;BMP280;52893;52.870;5.822;2023-07-20T09:10:43;101530.72;;;22.74
66113;BMP280;52893;52.870;5.822;2023-07-20T09:13:14;101527.16;;;22.77
66113;BMP280;52893;52.870;5.822;2023-07-20T09:15:45;101526.75;;;22.82
66113;BMP280;52893;52.870;5.822;2023-07-20T09:18:23;101533.09;;;23.00
66113;BMP280;52893;52.870;5.822;2023-07-20T09:20:50;101535.84;;;23.24
66113;BMP280;52893;52.870;5.822;2023-07-20T09:23:17;101533.81;;;23.46
66113;BMP280;52893;52.870;5.822;2023-07-20T09:25:46;101530.19;;;23.70
66113;BMP280;52893;52.870;5.822;2023-07-20T09:28:16;101537.75;;;23.66
66113;BMP280;52893;52.870;5.822;2023-07-20T09:30:44;101533.38;;;23.65
66113;BMP280;52893;52.870;5.822;2023-07-20T09:33:21;101533.41;;;23.58
66113;BMP280;52893;52.870;5.822;2023-07-20T09:35:48;101533.00;;;23.53
66113;BMP280;52893;52.870;5.822;2023-07-20T09:38:15;101526.28;;;23.36
66113;BMP280;52893;52.870;5.822;2023-07-20T09:40:43;101531.06;;;23.39
66113;BMP280;52893;52.870;5.822;2023-07-20T09:43:10;101527.09;;;23.33
66113;BMP280;52893;52.870;5.822;2023-07-20T09:45:40;101525.94;;;23.23
66113;BMP280;52893;52.870;5.822;2023-07-20T09:48:08;101530.31;;;23.03
66113;BMP280;52893;52.870;5.822;2023-07-20T09:50:41;101518.03;;;22.87
66113;BMP280;52893;52.870;5.822;2023-07-20T09:53:11;101528.72;;;23.13
66113;BMP280;52893;52.870;5.822;2023-07-20T09:55:39;101535.88;;;23.21
66113;BMP280;52893;52.870;5.822;2023-07-20T09:58:08;101520.38;;;22.99
66113;BMP280;52893;52.870;5.822;2023-07-20T10:00:36;101522.34;;;23.19
66113;BMP280;52893;52.870;5.822;2023-07-20T10:03:04;101534.97;;;23.66
66113;BMP280;52893;52.870;5.822;2023-07-20T10:05:33;101524.44;;;24.02
66113;BMP280;52893;52.870;5.822;2023-07-20T10:08:04;101521.78;;;24.43
66113;BMP280;52893;52.870;5.822;2023-07-20T10:10:33;101519.47;;;24.82
66113;BMP280;52893;52.870;5.822;2023-07-20T10:13:01;101520.00;;;24.67
66113;BMP280;52893;52.870;5.822;2023-07-20T10:15:33;101520.97;;;24.42
66113;BMP280;52893;52.870;5.822;2023-07-20T10:18:04;101533.19;;;24.08
66113;BMP280;52893;52.870;5.822;2023-07-20T10:20:35;101530.94;;;23.74
66113;BMP280;52893;52.870;5.822;2023-07-20T10:23:04;101519.13;;;23.31
66113;BMP280;52893;52.870;5.822;2023-07-20T10:25:32;101521.97;;;23.14
66113;BMP280;52893;52.870;5.822;2023-07-20T10:28:04;101525.16;;;23.12
66113;BMP280;52893;52.870;5.822;2023-07-20T10:30:33;101520.78;;;22.90
66113;BMP280;52893;52.870;5.822;2023-07-20T10:33:01;101507.28;;;22.67
66113;BMP280;52893;52.870;5.822;2023-07-20T10:35:29;101522.38;;;22.66
66113;BMP280;52893;52.870;5.822;2023-07-20T10:38:00;101527.94;;;22.74
66113;BMP280;52893;52.870;5.822;2023-07-20T10:40:33;101526.31;;;22.69
66113;BMP280;52893;52.870;5.822;2023-07-20T10:43:03;101532.72;;;22.48
66113;BMP280;52893;52.870;5.822;2023-07-20T10:45:35;101526.31;;;22.51
66113;BMP280;52893;52.870;5.822;2023-07-20T10:48:03;101533.09;;;22.57
66113;BMP280;52893;52.870;5.822;2023-07-20T10:50:32;101528.75;;;22.67
66113;BMP280;52893;52.870;5.822;2023-07-20T10:53:11;101532.69;;;22.69
66113;BMP280;52893;52.870;5.822;2023-07-20T10:55:40;101527.94;;;22.66
66113;BMP280;52893;52.870;5.822;2023-07-20T10:58:09;101517.59;;;22.85
66113;BMP280;52893;52.870;5.822;2023-07-20T11:00:37;101523.47;;;23.43
66113;BMP280;52893;52.870;5.822;2023-07-20T11:03:04;101519.69;;;23.96
66113;BMP280;52893;52.870;5.822;2023-07-20T11:05:36;101520.22;;;24.38
66113;BMP280;52893;52.870;5.822;2023-07-20T11:08:04;101519.03;;;24.87
66113;BMP280;52893;52.870;5.822;2023-07-20T11:10:32;101513.72;;;25.37
66113;BMP280;52893;52.870;5.822;2023-07-20T11:13:20;101517.38;;;25.64
66113;BMP280;52893;52.870;5.822;2023-07-20T11:16:02;101514.50;;;25.98
66113;BMP280;52893;52.870;5.822;2023-07-20T11:18:33;101515.22;;;26.02
66113;BMP280;52893;52.870;5.822;2023-07-20T11:21:00;101512.94;;;26.24
66113;BMP280;52893;52.870;5.822;2023-07-20T11:23:29;101512.13;;;26.23
66113;BMP280;52893;52.870;5.822;2023-07-20T11:25:56;101512.09;;;25.97
66113;BMP280;52893;52.870;5.822;2023-07-20T11:28:29;101508.34;;;25.80
66113;BMP280;52893;52.870;5.822;2023-07-20T11:30:57;101505.66;;;25.73
66113;BMP280;52893;52.870;5.822;2023-07-20T11:33:24;101508.72;;;25.52
66113;BMP280;52893;52.870;5.822;2023-07-20T11:35:51;101516.31;;;25.21
66113;BMP280;52893;52.870;5.822;2023-07-20T11:38:18;101502.84;;;25.09
66113;BMP280;52893;52.870;5.822;2023-07-20T11:40:46;101514.00;;;25.09
66113;BMP280;52893;52.870;5.822;2023-07-20T11:43:13;101504.88;;;24.64
66113;BMP280;52893;52.870;5.822;2023-07-20T11:45:42;101512.03;;;24.14
66113;BMP280;52893;52.870;5.822;2023-07-20T11:48:14;101511.09;;;23.62
66113;BMP280;52893;52.870;5.822;2023-07-20T11:50:41;101511.56;;;23.25
66113;BMP280;52893;52.870;5.822;2023-07-20T11:53:09;101505.66;;;22.88
66113;BMP280;52893;52.870;5.822;2023-07-20T11:55:36;101521.19;;;22.71
66113;BMP280;52893;52.870;5.822;2023-07-20T11:58:06;101517.97;;;22.51
66113;BMP280;52893;52.870;5.822;2023-07-20T12:00:34;101519.97;;;22.61
66113;BMP280;52893;52.870;5.822;2023-07-20T12:03:05;101518.41;;;22.75
66113;BMP280;52893;52.870;5.822;2023-07-20T12:05:33;101516.78;;;23.09
66113;BMP280;52893;52.870;5.822;2023-07-20T12:08:00;101512.75;;;23.38
66113;BMP280;52893;52.870;5.822;2023-07-20T12:10:28;101506.94;;;23.98
66113;BMP280;52893;52.870;5.822;2023-07-20T12:13:01;101513.75;;;24.55
66113;BMP280;52893;52.870;5.822;2023-07-20T12:15:28;101500.56;;;24.97
66113;BMP280;52893;52.870;5.822;2023-07-20T12:17:57;101511.72;;;25.00
66113;BMP280;52893;52.870;5.822;2023-07-20T12:20:27;101500.75;;;25.16
66113;BMP280;52893;52.870;5.822;2023-07-20T12:22:57;101500.81;;;25.47
66113;BMP280;52893;52.870;5.822;2023-07-20T12:25:32;101490.81;;;25.46
66113;BMP280;52893;52.870;5.822;2023-07-20T12:28:00;101495.13;;;25.54
66113;BMP280;52893;52.870;5.822;2023-07-20T12:30:28;101499.78;;;25.94
66113;BMP280;52893;52.870;5.822;2023-07-20T12:32:55;101499.03;;;25.90
66113;BMP280;52893;52.870;5.822;2023-07-20T12:35:22;101491.91;;;25.55
66113;BMP280;52893;52.870;5.822;2023-07-20T12:37:51;101496.66;;;25.28
66113;BMP280;52893;52.870;5.822;2023-07-20T12:40:20;101498.69;;;25.24
66113;BMP280;52893;52.870;5.822;2023-07-20T12:42:47;101492.28;;;25.23
66113;BMP280;52893;52.870;5.822;2023-07-20T12:45:15;101490.63;;;25.30
66113;BMP280;52893;52.870;5.822;2023-07-20T12:47:42;101489.25;;;25.45
66113;BMP280;52893;52.870;5.822;2023-07-20T12:50:09;101490.47;;;25.44
66113;BMP280;52893;52.870;5.822;2023-07-20T12:52:37;101484.97;;;25.67
66113;BMP280;52893;52.870;5.822;2023-07-20T12:55:08;101495.28;;;26.00
66113;BMP280;52893;52.870;5.822;2023-07-20T12:57:36;101492.28;;;26.37
66113;BMP280;52893;52.870;5.822;2023-07-20T13:00:05;101486.84;;;26.73
66113;BMP280;52893;52.870;5.822;2023-07-20T13:02:33;101487.25;;;26.95
66113;BMP280;52893;52.870;5.822;2023-07-20T13:05:01;101487.41;;;27.27
66113;BMP280;52893;52.870;5.822;2023-07-20T13:07:30;101479.34;;;27.29
66113;BMP280;52893;52.870;5.822;2023-07-20T13:09:58;101481.13;;;27.19
66113;BMP280;52893;52.870;5.822;2023-07-20T13:12:29;101472.06;;;26.92
66113;BMP280;52893;52.870;5.822;2023-07-20T13:14:57;101482.53;;;26.69
66113;BMP280;52893;52.870;5.822;2023-07-20T13:17:26;101467.88;;;26.38
66113;BMP280;52893;52.870;5.822;2023-07-20T13:19:54;101471.09;;;26.13
66113;BMP280;52893;52.870;5.822;2023-07-20T13:22:21;101463.34;;;25.71
66113;BMP280;52893;52.870;5.822;2023-07-20T13:24:49;101471.34;;;25.39
66113;BMP280;52893;52.870;5.822;2023-07-20T13:27:16;101466.53;;;25.05
66113;BMP280;52893;52.870;5.822;2023-07-20T13:29:45;101466.91;;;24.74
66113;BMP280;52893;52.870;5.822;2023-07-20T13:32:13;101476.16;;;24.60
66113;BMP280;52893;52.870;5.822;2023-07-20T13:34:40;101468.56;;;24.64
66113;BMP280;52893;52.870;5.822;2023-07-20T13:37:08;101472.19;;;24.61
66113;BMP280;52893;52.870;5.822;2023-07-20T13:39:35;101464.41;;;24.83
66113;BMP280;52893;52.870;5.822;2023-07-20T13:42:03;101455.97;;;25.23
66113;BMP280;52893;52.870;5.822;2023-07-20T13:44:31;101470.31;;;25.86
66113;BMP280;52893;52.870;5.822;2023-07-20T13:47:00;101452.31;;;26.37
66113;BMP280;52893;52.870;5.822;2023-07-20T13:49:27;101458.50;;;26.91
66113;BMP280;52893;52.870;5.822;2023-07-20T13:51:55;101460.81;;;27.35
66113;BMP280;52893;52.870;5.822;2023-07-20T13:54:23;101454.75;;;27.72
66113;BMP280;52893;52.870;5.822;2023-07-20T13:56:50;101450.50;;;27.64
66113;BMP280;52893;52.870;5.822;2023-07-20T13:59:17;101451.44;;;27.22
66113;BMP280;52893;52.870;5.822;2023-07-20T14:01:45;101455.78;;;26.64
66113;BMP280;52893;52.870;5.822;2023-07-20T14:04:14;101454.19;;;26.20